sensor_id;sensor_type;location;lat;lon;timestamp;P1;durP1;ratioP1;P2;durP2;ratioP2
63286;SDS011;49410;55.708;37.522;2022-07-06T00:01:38;24.73;;;14.82;;
63286;SDS011;49410;55.708;37.522;2022-07-06T00:04:04;24.58;;;15.70;;
63286;SDS011;49410;55.708;37.522;2022-07-06T00:06:30;24.42;;;15.45;;
63286;SDS011;49410;55.708;37.522;2022-07-06T00:08:56;29.75;;;15.90;;
63286;SDS011;49410;55.708;37.522;2022-07-06T00:11:22;24.23;;;15.20;;
63286;SDS011;49410;55.708;37.522;2022-07-06T00:13:48;26.40;;;15.32;;
63286;SDS011;49410;55.708;37.522;2022-07-06T00:16:14;29.27;;;16.75;;
63286;SDS011;49410;55.708;37.522;2022-07-06T00:18:39;27.70;;;16.27;;
63286;SDS011;49410;55.708;37.522;2022-07-06T00:21:05;26.40;;;16.00;;
63286;SDS011;49410;55.708;37.522;2022-07-06T00:23:30;27.15;;;16.40;;
63286;SDS011;49410;55.708;37.522;2022-07-06T00:25:56;27.83;;;15.30;;
63286;SDS011;49410;55.708;37.522;2022-07-06T00:28:21;23.08;;;14.93;;
63286;SDS011;49410;55.708;37.522;2022-07-06T00:30:47;24.13;;;15.38;;
63286;SDS011;49410;55.708;37.522;2022-07-06T00:33:12;24.55;;;15.50;;
63286;SDS011;49410;55.708;37.522;2022-07-06T00:35:38;27.08;;;16.70;;
63286;SDS011;49410;55.708;37.522;2022-07-06T00:38:04;24.30;;;14.85;;
63286;SDS011;49410;55.708;37.522;2022-07-06T00:40:29;24.58;;;15.52;;
63286;SDS011;49410;55.708;37.522;2022-07-06T00:42:55;27.30;;;15.90;;
63286;SDS011;49410;55.708;37.522;2022-07-06T00:45:21;26.90;;;16.20;;
63286;SDS011;49410;55.708;37.522;2022-07-06T00:47:47;23.83;;;14.82;;
63286;SDS011;49410;55.708;37.522;2022-07-06T00:50:14;23.92;;;14.40;;
63286;SDS011;49410;55.708;37.522;2022-07-06T00:52:56;22.95;;;14.32;;
63286;SDS011;49410;55.708;37.522;2022-07-06T00:55:25;27.80;;;16.15;;
63286;SDS011;49410;55.708;37.522;2022-07-06T00:57:53;26.60;;;16.48;;
63286;SDS011;49410;55.708;37.522;2022-07-06T01:00:20;26.27;;;16.10;;
63286;SDS011;49410;55.708;37.522;2022-07-06T01:02:48;27.40;;;16.30;;
63286;SDS011;49410;55.708;37.522;2022-07-06T01:05:14;22.55;;;14.57;;
63286;SDS011;49410;55.708;37.522;2022-07-06T01:07:41;24.83;;;15.57;;
63286;SDS011;49410;55.708;37.522;2022-07-06T01:10:11;25.80;;;16.25;;
63286;SDS011;49410;55.708;37.522;2022-07-06T01:12:38;25.17;;;16.30;;
63286;SDS011;49410;55.708;37.522;2022-07-06T01:15:06;21.85;;;13.80;;
63286;SDS011;49410;55.708;37.522;2022-07-06T01:17:38;24.10;;;15.05;;
63286;SDS011;49410;55.708;37.522;2022-07-06T01:20:08;24.23;;;15.27;;
63286;SDS011;49410;55.708;37.522;2022-07-06T01:22:35;25.95;;;15.63;;
63286;SDS011;49410;55.708;37.522;2022-07-06T01:25:01;25.08;;;14.73;;
63286;SDS011;49410;55.708;37.522;2022-07-06T01:27:26;23.15;;;15.05;;
63286;SDS011;49410;55.708;37.522;2022-07-06T01:29:52;23.55;;;15.15;;
63286;SDS011;49410;55.708;37.522;2022-07-06T01:32:17;29.55;;;15.32;;
63286;SDS011;49410;55.708;37.522;2022-07-06T01:34:43;25.65;;;15.95;;
63286;SDS011;49410;55.708;37.522;2022-07-06T01:37:08;27.27;;;15.80;;
63286;SDS011;49410;55.708;37.522;2022-07-06T01:39:34;26.98;;;16.33;;
63286;SDS011;49410;55.708;37.522;2022-07-06T01:41:59;25.98;;;15.80;;
63286;SDS011;49410;55.708;37.522;2022-07-06T01:44:25;26.23;;;14.68;;
63286;SDS011;49410;55.708;37.522;2022-07-06T01:46:50;25.73;;;15.40;;
63286;SDS011;49410;55.708;37.522;2022-07-06T01:49:16;24.40;;;15.88;;
63286;SDS011;49410;55.708;37.522;2022-07-06T01:51:41;26.27;;;15.48;;
63286;SDS011;49410;55.708;37.522;2022-07-06T01:54:07;24.55;;;15.55;;
63286;SDS011;49410;55.708;37.522;2022-07-06T01:56:32;28.05;;;17.13;;
63286;SDS011;49410;55.708;37.522;2022-07-06T01:58:58;24.65;;;15.85;;
63286;SDS011;49410;55.708;37.522;2022-07-06T02:01:23;24.85;;;15.75;;
63286;SDS011;49410;55.708;37.522;2022-07-06T02:03:49;27.30;;;16.73;;
63286;SDS011;49410;55.708;37.522;2022-07-06T02:06:15;25.98;;;16.30;;
63286;SDS011;49410;55.708;37.522;2022-07-06T02:08:41;26.88;;;17.27;;
63286;SDS011;49410;55.708;37.522;2022-07-06T02:11:08;28.35;;;16.92;;
63286;SDS011;49410;55.708;37.522;2022-07-06T02:13:34;26.40;;;15.55;;
63286;SDS011;49410;55.708;37.522;2022-07-06T02:16:01;26.40;;;16.40;;
63286;SDS011;49410;55.708;37.522;2022-07-06T02:18:27;24.90;;;17.05;;
63286;SDS011;49410;55.708;37.522;2022-07-06T02:20:53;27.08;;;17.05;;
63286;SDS011;49410;55.708;37.522;2022-07-06T02:23:18;27.58;;;16.38;;
63286;SDS011;49410;55.708;37.522;2022-07-06T02:25:44;26.98;;;17.40;;
63286;SDS011;49410;55.708;37.522;2022-07-06T02:28:09;27.42;;;17.13;;
63286;SDS011;49410;55.708;37.522;2022-07-06T02:30:35;29.90;;;17.05;;
63286;SDS011;49410;55.708;37.522;2022-07-06T02:33:00;27.45;;;17.33;;
63286;SDS011;49410;55.708;37.522;2022-07-06T02:35:26;27.85;;;17.02;;
63286;SDS011;49410;55.708;37.522;2022-07-06T02:37:52;28.63;;;17.75;;
63286;SDS011;49410;55.708;37.522;2022-07-06T02:40:17;31.38;;;18.02;;
63286;SDS011;49410;55.708;37.522;2022-07-06T02:42:43;30.00;;;17.65;;
63286;SDS011;49410;55.708;37.522;2022-07-06T02:45:09;27.30;;;17.33;;
63286;SDS011;49410;55.708;37.522;2022-07-06T02:47:35;28.50;;;17.35;;
63286;SDS011;49410;55.708;37.522;2022-07-06T02:50:00;28.92;;;17.45;;
63286;SDS011;49410;55.708;37.522;2022-07-06T02:52:26;28.45;;;17.65;;
63286;SDS011;49410;55.708;37.522;2022-07-06T02:58:33;30.20;;;18.00;;
63286;SDS011;49410;55.708;37.522;2022-07-06T03:00:59;27.45;;;17.85;;
63286;SDS011;49410;55.708;37.522;2022-07-06T03:03:24;25.30;;;16.20;;
63286;SDS011;49410;55.708;37.522;2022-07-06T03:05:50;26.25;;;15.90;;
63286;SDS011;49410;55.708;37.522;2022-07-06T03:08:15;26.20;;;16.88;;
63286;SDS011;49410;55.708;37.522;2022-07-06T03:10:41;26.33;;;16.52;;
63286;SDS011;49410;55.708;37.522;2022-07-06T03:13:06;24.10;;;14.63;;
63286;SDS011;49410;55.708;37.522;2022-07-06T03:15:32;25.48;;;14.75;;
63286;SDS011;49410;55.708;37.522;2022-07-06T03:17:57;21.83;;;15.25;;
63286;SDS011;49410;55.708;37.522;2022-07-06T03:20:23;22.50;;;14.90;;
63286;SDS011;49410;55.708;37.522;2022-07-06T03:22:48;23.70;;;15.75;;
63286;SDS011;49410;55.708;37.522;2022-07-06T03:25:14;19.42;;;13.90;;
63286;SDS011;49410;55.708;37.522;2022-07-06T03:27:39;21.92;;;14.05;;
63286;SDS011;49410;55.708;37.522;2022-07-06T03:30:05;23.02;;;13.38;;
63286;SDS011;49410;55.708;37.522;2022-07-06T03:32:30;23.85;;;14.52;;
63286;SDS011;49410;55.708;37.522;2022-07-06T03:34:56;21.73;;;14.02;;
63286;SDS011;49410;55.708;37.522;2022-07-06T03:37:22;21.75;;;14.30;;
63286;SDS011;49410;55.708;37.522;2022-07-06T03:39:47;22.08;;;14.00;;
63286;SDS011;49410;55.708;37.522;2022-07-06T03:42:13;21.23;;;13.23;;
63286;SDS011;49410;55.708;37.522;2022-07-06T03:44:38;21.95;;;14.88;;
63286;SDS011;49410;55.708;37.522;2022-07-06T03:47:04;22.08;;;13.90;;
63286;SDS011;49410;55.708;37.522;2022-07-06T03:49:29;20.85;;;13.02;;
63286;SDS011;49410;55.708;37.522;2022-07-06T03:51:55;20.90;;;14.00;;
63286;SDS011;49410;55.708;37.522;2022-07-06T03:54:21;23.08;;;14.32;;
63286;SDS011;49410;55.708;37.522;2022-07-06T03:56:46;22.33;;;13.30;;
63286;SDS011;49410;55.708;37.522;2022-07-06T03:59:12;21.05;;;13.65;;
63286;SDS011;49410;55.708;37.522;2022-07-06T04:01:38;24.08;;;16.20;;
63286;SDS011;49410;55.708;37.522;2022-07-06T04:04:03;24.48;;;14.85;;
63286;SDS011;49410;55.708;37.522;2022-07-06T04:06:29;23.33;;;15.82;;
63286;SDS011;49410;55.708;37.522;2022-07-06T04:08:55;25.90;;;16.02;;
63286;SDS011;49410;55.708;37.522;2022-07-06T04:11:20;25.50;;;15.95;;
63286;SDS011;49410;55.708;37.522;2022-07-06T04:13:46;25.95;;;15.35;;
63286;SDS011;49410;55.708;37.522;2022-07-06T04:16:12;22.85;;;14.13;;
63286;SDS011;49410;55.708;37.522;2022-07-06T04:18:37;27.30;;;15.45;;
63286;SDS011;49410;55.708;37.522;2022-07-06T04:21:03;24.80;;;15.73;;
63286;SDS011;49410;55.708;37.522;2022-07-06T04:23:28;26.10;;;14.45;;
63286;SDS011;49410;55.708;37.522;2022-07-06T04:25:54;24.70;;;14.48;;
63286;SDS011;49410;55.708;37.522;2022-07-06T04:28:19;20.08;;;13.95;;
63286;SDS011;49410;55.708;37.522;2022-07-06T04:30:45;21.20;;;13.38;;
63286;SDS011;49410;55.708;37.522;2022-07-06T04:33:10;19.65;;;13.90;;
63286;SDS011;49410;55.708;37.522;2022-07-06T04:35:36;22.90;;;13.57;;
63286;SDS011;49410;55.708;37.522;2022-07-06T04:38:01;21.80;;;13.18;;
63286;SDS011;49410;55.708;37.522;2022-07-06T04:40:27;21.70;;;13.65;;
63286;SDS011;49410;55.708;37.522;2022-07-06T04:42:52;23.75;;;13.13;;
63286;SDS011;49410;55.708;37.522;2022-07-06T04:45:18;20.63;;;12.45;;
63286;SDS011;49410;55.708;37.522;2022-07-06T04:47:43;21.67;;;12.55;;
63286;SDS011;49410;55.708;37.522;2022-07-06T04:50:09;19.00;;;11.98;;
63286;SDS011;49410;55.708;37.522;2022-07-06T04:52:34;20.95;;;12.05;;
63286;SDS011;49410;55.708;37.522;2022-07-06T04:55:00;18.48;;;12.15;;
63286;SDS011;49410;55.708;37.522;2022-07-06T04:57:26;17.88;;;11.75;;
63286;SDS011;49410;55.708;37.522;2022-07-06T04:59:53;20.23;;;11.98;;
63286;SDS011;49410;55.708;37.522;2022-07-06T05:02:18;22.90;;;13.88;;
63286;SDS011;49410;55.708;37.522;2022-07-06T05:04:44;22.90;;;12.35;;
63286;SDS011;49410;55.708;37.522;2022-07-06T05:07:09;20.25;;;12.52;;
63286;SDS011;49410;55.708;37.522;2022-07-06T05:09:35;17.40;;;11.60;;
63286;SDS011;49410;55.708;37.522;2022-07-06T05:12:00;20.95;;;12.98;;
63286;SDS011;49410;55.708;37.522;2022-07-06T05:14:26;17.40;;;11.90;;
63286;SDS011;49410;55.708;37.522;2022-07-06T05:16:51;17.15;;;11.38;;
63286;SDS011;49410;55.708;37.522;2022-07-06T05:19:17;17.33;;;10.70;;
63286;SDS011;49410;55.708;37.522;2022-07-06T05:21:42;18.63;;;12.57;;
63286;SDS011;49410;55.708;37.522;2022-07-06T05:24:08;16.40;;;10.88;;
63286;SDS011;49410;55.708;37.522;2022-07-06T05:26:33;17.08;;;11.02;;
63286;SDS011;49410;55.708;37.522;2022-07-06T05:28:59;16.50;;;11.23;;
63286;SDS011;49410;55.708;37.522;2022-07-06T05:31:24;14.65;;;10.63;;
63286;SDS011;49410;55.708;37.522;2022-07-06T05:33:50;17.00;;;10.48;;
63286;SDS011;49410;55.708;37.522;2022-07-06T05:36:15;15.02;;;10.63;;
63286;SDS011;49410;55.708;37.522;2022-07-06T05:38:41;14.65;;;10.57;;
63286;SDS011;49410;55.708;37.522;2022-07-06T05:41:07;14.98;;;9.90;;
63286;SDS011;49410;55.708;37.522;2022-07-06T05:43:35;18.05;;;10.25;;
63286;SDS011;49410;55.708;37.522;2022-07-06T05:46:01;14.85;;;10.63;;
63286;SDS011;49410;55.708;37.522;2022-07-06T05:48:27;17.90;;;10.57;;
63286;SDS011;49410;55.708;37.522;2022-07-06T05:51:11;16.90;;;10.65;;
63286;SDS011;49410;55.708;37.522;2022-07-06T05:53:36;17.10;;;10.38;;
63286;SDS011;49410;55.708;37.522;2022-07-06T05:56:02;16.73;;;10.27;;
63286;SDS011;49410;55.708;37.522;2022-07-06T05:58:28;14.65;;;10.30;;
63286;SDS011;49410;55.708;37.522;2022-07-06T06:00:53;14.35;;;9.50;;
63286;SDS011;49410;55.708;37.522;2022-07-06T06:03:19;14.00;;;9.55;;
63286;SDS011;49410;55.708;37.522;2022-07-06T06:05:44;16.30;;;9.70;;
63286;SDS011;49410;55.708;37.522;2022-07-06T06:08:10;16.35;;;10.20;;
63286;SDS011;49410;55.708;37.522;2022-07-06T06:10:35;12.65;;;9.50;;
63286;SDS011;49410;55.708;37.522;2022-07-06T06:13:01;18.08;;;9.98;;
63286;SDS011;49410;55.708;37.522;2022-07-06T06:15:27;15.52;;;9.73;;
63286;SDS011;49410;55.708;37.522;2022-07-06T06:17:52;14.02;;;9.73;;
63286;SDS011;49410;55.708;37.522;2022-07-06T06:20:18;14.73;;;10.20;;
63286;SDS011;49410;55.708;37.522;2022-07-06T06:22:44;16.27;;;9.93;;
63286;SDS011;49410;55.708;37.522;2022-07-06T06:25:29;19.15;;;9.63;;
63286;SDS011;49410;55.708;37.522;2022-07-06T06:27:59;15.23;;;9.88;;
63286;SDS011;49410;55.708;37.522;2022-07-06T06:30:26;18.05;;;10.50;;
63286;SDS011;49410;55.708;37.522;2022-07-06T06:32:52;14.85;;;9.63;;
63286;SDS011;49410;55.708;37.522;2022-07-06T06:35:17;14.05;;;8.75;;
63286;SDS011;49410;55.708;37.522;2022-07-06T06:37:42;14.57;;;9.18;;
63286;SDS011;49410;55.708;37.522;2022-07-06T06:40:08;14.02;;;10.23;;
63286;SDS011;49410;55.708;37.522;2022-07-06T06:42:37;14.80;;;9.40;;
63286;SDS011;49410;55.708;37.522;2022-07-06T06:45:03;14.38;;;9.23;;
63286;SDS011;49410;55.708;37.522;2022-07-06T06:47:29;15.18;;;8.93;;
63286;SDS011;49410;55.708;37.522;2022-07-06T06:49:54;17.52;;;9.63;;
63286;SDS011;49410;55.708;37.522;2022-07-06T06:52:19;14.07;;;9.18;;
63286;SDS011;49410;55.708;37.522;2022-07-06T06:54:45;16.90;;;9.70;;
63286;SDS011;49410;55.708;37.522;2022-07-06T06:57:10;16.20;;;9.57;;
63286;SDS011;49410;55.708;37.522;2022-07-06T06:59:36;14.43;;;9.23;;
63286;SDS011;49410;55.708;37.522;2022-07-06T07:02:01;14.25;;;8.68;;
63286;SDS011;49410;55.708;37.522;2022-07-06T07:04:27;13.57;;;8.82;;
63286;SDS011;49410;55.708;37.522;2022-07-06T07:06:54;12.45;;;8.18;;
63286;SDS011;49410;55.708;37.522;2022-07-06T07:09:20;12.15;;;8.63;;
63286;SDS011;49410;55.708;37.522;2022-07-06T07:11:45;12.52;;;8.88;;
63286;SDS011;49410;55.708;37.522;2022-07-06T07:14:11;13.18;;;8.48;;
63286;SDS011;49410;55.708;37.522;2022-07-06T07:16:36;13.07;;;10.02;;
63286;SDS011;49410;55.708;37.522;2022-07-06T07:19:02;16.33;;;9.57;;
63286;SDS011;49410;55.708;37.522;2022-07-06T07:21:27;16.58;;;10.20;;
63286;SDS011;49410;55.708;37.522;2022-07-06T07:23:53;12.80;;;9.40;;
63286;SDS011;49410;55.708;37.522;2022-07-06T07:26:18;13.60;;;9.20;;
63286;SDS011;49410;55.708;37.522;2022-07-06T07:28:44;12.73;;;8.95;;
63286;SDS011;49410;55.708;37.522;2022-07-06T07:31:09;15.68;;;8.90;;
63286;SDS011;49410;55.708;37.522;2022-07-06T07:33:35;13.23;;;8.75;;
63286;SDS011;49410;55.708;37.522;2022-07-06T07:36:00;12.95;;;9.25;;
63286;SDS011;49410;55.708;37.522;2022-07-06T07:38:26;15.27;;;10.15;;
63286;SDS011;49410;55.708;37.522;2022-07-06T07:40:54;16.30;;;8.73;;
63286;SDS011;49410;55.708;37.522;2022-07-06T07:43:20;17.77;;;9.35;;
63286;SDS011;49410;55.708;37.522;2022-07-06T07:45:46;13.32;;;9.35;;
63286;SDS011;49410;55.708;37.522;2022-07-06T07:48:13;14.50;;;9.43;;
63286;SDS011;49410;55.708;37.522;2022-07-06T07:50:40;11.95;;;8.70;;
63286;SDS011;49410;55.708;37.522;2022-07-06T07:53:06;14.85;;;9.43;;
63286;SDS011;49410;55.708;37.522;2022-07-06T07:55:32;13.13;;;9.18;;
63286;SDS011;49410;55.708;37.522;2022-07-06T08:01:20;14.38;;;9.82;;
63286;SDS011;49410;55.708;37.522;2022-07-06T08:03:45;14.82;;;9.48;;
63286;SDS011;49410;55.708;37.522;2022-07-06T08:06:10;16.23;;;9.70;;
63286;SDS011;49410;55.708;37.522;2022-07-06T08:08:36;15.13;;;9.70;;
63286;SDS011;49410;55.708;37.522;2022-07-06T08:11:02;14.30;;;9.30;;
63286;SDS011;49410;55.708;37.522;2022-07-06T08:13:27;14.55;;;9.77;;
63286;SDS011;49410;55.708;37.522;2022-07-06T08:15:53;13.73;;;9.85;;
63286;SDS011;49410;55.708;37.522;2022-07-06T08:18:18;14.73;;;9.45;;
63286;SDS011;49410;55.708;37.522;2022-07-06T08:20:44;13.57;;;9.98;;
63286;SDS011;49410;55.708;37.522;2022-07-06T08:23:09;22.80;;;11.05;;
63286;SDS011;49410;55.708;37.522;2022-07-06T08:25:35;12.45;;;9.25;;
63286;SDS011;49410;55.708;37.522;2022-07-06T08:28:00;16.30;;;10.20;;
63286;SDS011;49410;55.708;37.522;2022-07-06T08:30:26;13.82;;;10.05;;
63286;SDS011;49410;55.708;37.522;2022-07-06T08:32:52;17.02;;;9.98;;
63286;SDS011;49410;55.708;37.522;2022-07-06T08:35:17;14.70;;;9.60;;
63286;SDS011;49410;55.708;37.522;2022-07-06T08:37:43;14.15;;;9.63;;
63286;SDS011;49410;55.708;37.522;2022-07-06T08:40:09;14.02;;;9.38;;
63286;SDS011;49410;55.708;37.522;2022-07-06T08:42:35;14.50;;;8.68;;
63286;SDS011;49410;55.708;37.522;2022-07-06T08:45:02;14.23;;;9.00;;
63286;SDS011;49410;55.708;37.522;2022-07-06T08:47:30;13.23;;;8.95;;
63286;SDS011;49410;55.708;37.522;2022-07-06T08:49:56;13.88;;;9.10;;
63286;SDS011;49410;55.708;37.522;2022-07-06T08:52:23;15.18;;;9.65;;
63286;SDS011;49410;55.708;37.522;2022-07-06T08:54:49;13.20;;;9.35;;
63286;SDS011;49410;55.708;37.522;2022-07-06T08:57:14;13.60;;;10.68;;
63286;SDS011;49410;55.708;37.522;2022-07-06T08:59:40;15.27;;;10.75;;
63286;SDS011;49410;55.708;37.522;2022-07-06T09:02:06;14.90;;;10.52;;
63286;SDS011;49410;55.708;37.522;2022-07-06T09:04:34;15.15;;;10.63;;
63286;SDS011;49410;55.708;37.522;2022-07-06T09:07:00;16.88;;;11.00;;
63286;SDS011;49410;55.708;37.522;2022-07-06T09:09:26;16.00;;;11.05;;
63286;SDS011;49410;55.708;37.522;2022-07-06T09:11:57;14.40;;;11.20;;
63286;SDS011;49410;55.708;37.522;2022-07-06T09:14:24;17.23;;;11.90;;
63286;SDS011;49410;55.708;37.522;2022-07-06T09:17:03;18.13;;;11.88;;
63286;SDS011;49410;55.708;37.522;2022-07-06T09:19:31;16.15;;;11.75;;
63286;SDS011;49410;55.708;37.522;2022-07-06T09:21:58;15.65;;;11.13;;
63286;SDS011;49410;55.708;37.522;2022-07-06T09:24:24;14.82;;;11.05;;
63286;SDS011;49410;55.708;37.522;2022-07-06T09:26:52;15.35;;;11.52;;
63286;SDS011;49410;55.708;37.522;2022-07-06T09:29:26;15.40;;;11.57;;
63286;SDS011;49410;55.708;37.522;2022-07-06T09:31:56;17.45;;;12.90;;
63286;SDS011;49410;55.708;37.522;2022-07-06T09:34:39;17.27;;;12.68;;
63286;SDS011;49410;55.708;37.522;2022-07-06T09:37:07;17.20;;;12.52;;
63286;SDS011;49410;55.708;37.522;2022-07-06T09:39:32;18.35;;;12.30;;
63286;SDS011;49410;55.708;37.522;2022-07-06T09:41:59;17.80;;;12.00;;
63286;SDS011;49410;55.708;37.522;2022-07-06T09:44:26;15.13;;;10.75;;
63286;SDS011;49410;55.708;37.522;2022-07-06T09:46:53;16.17;;;11.27;;
63286;SDS011;49410;55.708;37.522;2022-07-06T09:49:21;16.23;;;11.25;;
63286;SDS011;49410;55.708;37.522;2022-07-06T09:51:48;16.10;;;11.25;;
63286;SDS011;49410;55.708;37.522;2022-07-06T09:54:16;16.83;;;11.25;;
63286;SDS011;49410;55.708;37.522;2022-07-06T09:56:43;18.55;;;12.10;;
63286;SDS011;49410;55.708;37.522;2022-07-06T09:59:13;18.55;;;12.43;;
63286;SDS011;49410;55.708;37.522;2022-07-06T10:01:41;16.33;;;11.73;;
63286;SDS011;49410;55.708;37.522;2022-07-06T10:04:08;16.90;;;11.30;;
63286;SDS011;49410;55.708;37.522;2022-07-06T10:06:35;16.50;;;10.98;;
63286;SDS011;49410;55.708;37.522;2022-07-06T10:09:01;15.00;;;10.00;;
63286;SDS011;49410;55.708;37.522;2022-07-06T10:11:30;16.40;;;9.48;;
63286;SDS011;49410;55.708;37.522;2022-07-06T10:13:59;15.73;;;9.80;;
63286;SDS011;49410;55.708;37.522;2022-07-06T10:16:28;15.50;;;10.88;;
63286;SDS011;49410;55.708;37.522;2022-07-06T10:18:54;16.20;;;10.32;;
63286;SDS011;49410;55.708;37.522;2022-07-06T10:21:24;16.27;;;10.60;;
63286;SDS011;49410;55.708;37.522;2022-07-06T10:23:50;15.18;;;11.00;;
63286;SDS011;49410;55.708;37.522;2022-07-06T10:26:17;14.30;;;10.68;;
63286;SDS011;49410;55.708;37.522;2022-07-06T10:28:44;14.10;;;10.15;;
63286;SDS011;49410;55.708;37.522;2022-07-06T10:31:11;16.52;;;11.55;;
63286;SDS011;49410;55.708;37.522;2022-07-06T10:33:38;17.50;;;11.55;;
63286;SDS011;49410;55.708;37.522;2022-07-06T10:36:04;18.15;;;11.65;;
63286;SDS011;49410;55.708;37.522;2022-07-06T10:38:31;15.60;;;12.05;;
63286;SDS011;49410;55.708;37.522;2022-07-06T10:41:05;19.08;;;11.68;;
63286;SDS011;49410;55.708;37.522;2022-07-06T10:43:35;17.15;;;11.43;;
63286;SDS011;49410;55.708;37.522;2022-07-06T10:46:09;15.73;;;11.27;;
63286;SDS011;49410;55.708;37.522;2022-07-06T10:48:45;15.57;;;10.45;;
63286;SDS011;49410;55.708;37.522;2022-07-06T10:51:22;16.60;;;9.40;;
63286;SDS011;49410;55.708;37.522;2022-07-06T10:54:04;13.95;;;9.25;;
63286;SDS011;49410;55.708;37.522;2022-07-06T10:56:36;13.65;;;9.65;;
63286;SDS011;49410;55.708;37.522;2022-07-06T10:59:22;18.40;;;9.85;;
63286;SDS011;49410;55.708;37.522;2022-07-06T11:04:48;15.65;;;9.38;;
63286;SDS011;49410;55.708;37.522;2022-07-06T11:07:17;19.27;;;10.15;;
63286;SDS011;49410;55.708;37.522;2022-07-06T11:09:53;13.90;;;9.02;;
63286;SDS011;49410;55.708;37.522;2022-07-06T11:12:23;13.00;;;9.20;;
63286;SDS011;49410;55.708;37.522;2022-07-06T11:14:49;14.60;;;9.98;;
63286;SDS011;49410;55.708;37.522;2022-07-06T11:17:16;15.05;;;8.27;;
63286;SDS011;49410;55.708;37.522;2022-07-06T11:22:21;11.40;;;8.73;;
63286;SDS011;49410;55.708;37.522;2022-07-06T11:24:49;18.00;;;9.18;;
63286;SDS011;49410;55.708;37.522;2022-07-06T11:27:17;11.48;;;8.15;;
63286;SDS011;49410;55.708;37.522;2022-07-06T11:29:42;11.63;;;8.15;;
63286;SDS011;49410;55.708;37.522;2022-07-06T11:32:10;13.10;;;8.77;;
63286;SDS011;49410;55.708;37.522;2022-07-06T11:34:40;11.85;;;8.48;;
63286;SDS011;49410;55.708;37.522;2022-07-06T11:37:12;11.93;;;8.23;;
63286;SDS011;49410;55.708;37.522;2022-07-06T11:39:40;12.63;;;8.73;;
63286;SDS011;49410;55.708;37.522;2022-07-06T11:42:07;12.15;;;8.85;;
63286;SDS011;49410;55.708;37.522;2022-07-06T11:44:35;13.15;;;9.15;;
63286;SDS011;49410;55.708;37.522;2022-07-06T11:47:01;13.20;;;9.00;;
63286;SDS011;49410;55.708;37.522;2022-07-06T11:49:29;13.07;;;9.07;;
63286;SDS011;49410;55.708;37.522;2022-07-06T11:51:59;21.23;;;9.10;;
63286;SDS011;49410;55.708;37.522;2022-07-06T11:54:25;13.38;;;8.82;;
63286;SDS011;49410;55.708;37.522;2022-07-06T11:56:58;15.73;;;8.77;;
63286;SDS011;49410;55.708;37.522;2022-07-06T11:59:28;14.27;;;9.10;;
63286;SDS011;49410;55.708;37.522;2022-07-06T12:02:02;12.65;;;9.10;;
63286;SDS011;49410;55.708;37.522;2022-07-06T12:04:32;14.55;;;8.85;;
63286;SDS011;49410;55.708;37.522;2022-07-06T12:07:02;10.65;;;8.02;;
63286;SDS011;49410;55.708;37.522;2022-07-06T12:09:47;13.70;;;8.82;;
63286;SDS011;49410;55.708;37.522;2022-07-06T12:12:13;12.07;;;8.00;;
63286;SDS011;49410;55.708;37.522;2022-07-06T12:14:40;12.50;;;8.75;;
63286;SDS011;49410;55.708;37.522;2022-07-06T12:17:07;15.18;;;8.77;;
63286;SDS011;49410;55.708;37.522;2022-07-06T12:19:35;12.63;;;8.75;;
63286;SDS011;49410;55.708;37.522;2022-07-06T12:22:01;12.90;;;9.10;;
63286;SDS011;49410;55.708;37.522;2022-07-06T12:24:29;14.43;;;8.90;;
63286;SDS011;49410;55.708;37.522;2022-07-06T12:26:56;12.45;;;8.85;;
63286;SDS011;49410;55.708;37.522;2022-07-06T12:29:23;14.73;;;8.70;;
63286;SDS011;49410;55.708;37.522;2022-07-06T12:34:34;11.35;;;8.07;;
63286;SDS011;49410;55.708;37.522;2022-07-06T12:37:08;10.88;;;7.75;;
63286;SDS011;49410;55.708;37.522;2022-07-06T12:39:44;12.43;;;8.73;;
63286;SDS011;49410;55.708;37.522;2022-07-06T12:42:15;12.38;;;8.23;;
63286;SDS011;49410;55.708;37.522;2022-07-06T12:44:46;11.27;;;7.38;;
63286;SDS011;49410;55.708;37.522;2022-07-06T12:47:16;14.23;;;7.93;;
63286;SDS011;49410;55.708;37.522;2022-07-06T12:49:43;11.75;;;6.60;;
63286;SDS011;49410;55.708;37.522;2022-07-06T12:54:36;14.48;;;9.30;;
63286;SDS011;49410;55.708;37.522;2022-07-06T12:57:08;12.90;;;9.43;;
63286;SDS011;49410;55.708;37.522;2022-07-06T13:02:24;16.27;;;8.80;;
63286;SDS011;49410;55.708;37.522;2022-07-06T13:07:29;19.80;;;9.63;;
63286;SDS011;49410;55.708;37.522;2022-07-06T13:09:58;14.52;;;9.43;;
63286;SDS011;49410;55.708;37.522;2022-07-06T13:12:24;15.80;;;10.63;;
63286;SDS011;49410;55.708;37.522;2022-07-06T13:14:50;17.05;;;11.32;;
63286;SDS011;49410;55.708;37.522;2022-07-06T13:17:16;20.52;;;10.82;;
63286;SDS011;49410;55.708;37.522;2022-07-06T13:19:42;15.27;;;10.50;;
63286;SDS011;49410;55.708;37.522;2022-07-06T13:22:08;19.50;;;10.93;;
63286;SDS011;49410;55.708;37.522;2022-07-06T13:24:33;17.70;;;9.85;;
63286;SDS011;49410;55.708;37.522;2022-07-06T13:26:59;16.30;;;10.93;;
63286;SDS011;49410;55.708;37.522;2022-07-06T13:29:24;14.38;;;10.55;;
63286;SDS011;49410;55.708;37.522;2022-07-06T13:35:30;19.83;;;10.20;;
63286;SDS011;49410;55.708;37.522;2022-07-06T13:37:56;14.18;;;9.73;;
63286;SDS011;49410;55.708;37.522;2022-07-06T13:40:21;16.90;;;10.23;;
63286;SDS011;49410;55.708;37.522;2022-07-06T13:42:47;13.45;;;9.45;;
63286;SDS011;49410;55.708;37.522;2022-07-06T13:45:12;13.70;;;10.13;;
63286;SDS011;49410;55.708;37.522;2022-07-06T13:47:38;18.42;;;10.45;;
63286;SDS011;49410;55.708;37.522;2022-07-06T13:50:03;16.83;;;10.63;;
63286;SDS011;49410;55.708;37.522;2022-07-06T13:52:29;15.23;;;10.20;;
63286;SDS011;49410;55.708;37.522;2022-07-06T13:54:55;16.65;;;10.82;;
63286;SDS011;49410;55.708;37.522;2022-07-06T13:57:20;16.25;;;10.52;;
63286;SDS011;49410;55.708;37.522;2022-07-06T13:59:46;17.65;;;11.25;;
63286;SDS011;49410;55.708;37.522;2022-07-06T14:02:12;17.33;;;10.20;;
63286;SDS011;49410;55.708;37.522;2022-07-06T14:04:37;17.10;;;10.85;;
63286;SDS011;49410;55.708;37.522;2022-07-06T14:07:03;15.90;;;10.63;;
63286;SDS011;49410;55.708;37.522;2022-07-06T14:09:29;15.43;;;11.27;;
63286;SDS011;49410;55.708;37.522;2022-07-06T14:11:55;15.98;;;10.50;;
63286;SDS011;49410;55.708;37.522;2022-07-06T14:14:20;17.83;;;10.77;;
63286;SDS011;49410;55.708;37.522;2022-07-06T14:16:46;19.38;;;11.52;;
63286;SDS011;49410;55.708;37.522;2022-07-06T14:19:11;15.73;;;10.45;;
63286;SDS011;49410;55.708;37.522;2022-07-06T14:21:37;16.63;;;9.93;;
63286;SDS011;49410;55.708;37.522;2022-07-06T14:24:02;16.00;;;10.70;;
63286;SDS011;49410;55.708;37.522;2022-07-06T14:26:28;21.73;;;10.60;;
63286;SDS011;49410;55.708;37.522;2022-07-06T14:28:54;18.52;;;10.82;;
63286;SDS011;49410;55.708;37.522;2022-07-06T14:31:19;17.42;;;10.40;;
63286;SDS011;49410;55.708;37.522;2022-07-06T14:33:45;14.60;;;10.73;;
63286;SDS011;49410;55.708;37.522;2022-07-06T14:36:11;18.05;;;11.00;;
63286;SDS011;49410;55.708;37.522;2022-07-06T14:38:37;16.13;;;10.45;;